createdAt,value
2022-12-31T00:01:17.969Z,51.77
2022-12-31T00:03:47.294Z,51.63
2022-12-31T00:06:18.433Z,51.71
2022-12-31T00:08:47.696Z,51.70
2022-12-31T00:11:16.884Z,51.75
2022-12-31T00:13:46.666Z,51.74
2022-12-31T00:16:18.966Z,51.65
2022-12-31T00:18:49.420Z,51.70
2022-12-31T00:21:19.300Z,51.52
2022-12-31T00:23:48.934Z,51.79
2022-12-31T00:26:19.689Z,51.77
2022-12-31T00:28:48.831Z,51.77
2022-12-31T00:31:20.897Z,51.84
2022-12-31T00:33:49.494Z,51.57
2022-12-31T00:36:19.713Z,51.59
2022-12-31T00:38:51.220Z,51.52
2022-12-31T00:41:21.070Z,51.69
2022-12-31T00:43:50.349Z,51.82
2022-12-31T00:46:21.081Z,52.00
2022-12-31T00:48:49.927Z,51.71
2022-12-31T00:51:21.136Z,51.63
2022-12-31T00:53:50.157Z,51.78
2022-12-31T00:56:21.032Z,51.84
2022-12-31T00:58:50.319Z,51.70
2022-12-31T01:01:22.514Z,51.60
2022-12-31T01:03:55.063Z,51.97
2022-12-31T01:06:23.682Z,51.62
2022-12-31T01:08:53.735Z,51.81
2022-12-31T01:11:29.221Z,52.04
2022-12-31T01:14:00.189Z,51.78
2022-12-31T01:16:33.089Z,51.95
2022-12-31T01:19:04.375Z,51.71
2022-12-31T01:21:33.645Z,51.84
2022-12-31T01:24:02.375Z,51.93
2022-12-31T01:26:32.799Z,51.88
2022-12-31T01:29:01.249Z,51.81
2022-12-31T01:31:31.471Z,51.85
2022-12-31T01:33:59.956Z,51.93
2022-12-31T01:36:30.196Z,51.64
2022-12-31T01:39:01.733Z,51.85
2022-12-31T01:41:31.981Z,51.97
2022-12-31T01:44:01.862Z,51.77
2022-12-31T01:46:41.356Z,51.63
2022-12-31T01:49:14.736Z,51.88
2022-12-31T01:51:46.285Z,51.94
2022-12-31T01:54:19.306Z,51.87
2022-12-31T01:56:50.307Z,51.89
2022-12-31T01:59:21.867Z,51.85
2022-12-31T02:01:53.663Z,51.83
2022-12-31T02:04:24.903Z,51.79
2022-12-31T02:06:58.836Z,51.97
2022-12-31T02:09:27.315Z,52.01
2022-12-31T02:11:55.730Z,52.01
2022-12-31T02:14:27.957Z,51.98
2022-12-31T02:17:02.532Z,51.85
2022-12-31T02:20:14.601Z,51.83
2022-12-31T02:23:08.917Z,51.80
2022-12-31T02:26:04.477Z,51.82
2022-12-31T02:28:47.592Z,51.97
2022-12-31T02:31:19.677Z,52.16
2022-12-31T02:33:55.807Z,51.97
2022-12-31T02:36:28.839Z,51.85
2022-12-31T02:38:59.466Z,52.07
2022-12-31T02:41:45.629Z,51.99
2022-12-31T02:44:24.461Z,52.11
2022-12-31T02:47:02.596Z,51.98
2022-12-31T02:49:41.530Z,52.26
2022-12-31T02:52:19.085Z,52.00
2022-12-31T02:54:59.575Z,52.01
2022-12-31T02:57:35.253Z,51.93
2022-12-31T03:00:24.825Z,51.93
2022-12-31T03:02:56.625Z,51.99
2022-12-31T03:05:28.186Z,51.98
2022-12-31T03:07:56.752Z,51.98
2022-12-31T03:10:25.313Z,52.15
2022-12-31T03:12:52.944Z,52.01
2022-12-31T03:15:24.103Z,52.02
2022-12-31T03:17:56.837Z,51.94
2022-12-31T03:20:46.232Z,52.17
2022-12-31T03:23:17.352Z,52.06
2022-12-31T03:25:44.864Z,51.97
2022-12-31T03:28:15.162Z,52.13
2022-12-31T03:30:45.723Z,52.04
2022-12-31T03:33:16.011Z,52.10
2022-12-31T03:35:46.944Z,52.19
2022-12-31T03:38:16.262Z,52.06
2022-12-31T03:40:47.196Z,51.99
2022-12-31T03:43:15.882Z,52.17
2022-12-31T03:45:44.592Z,52.21
2022-12-31T03:48:15.210Z,52.04
2022-12-31T03:50:43.625Z,52.04
2022-12-31T03:53:12.346Z,52.06
2022-12-31T03:55:40.862Z,52.05
2022-12-31T03:58:09.423Z,52.11
2022-12-31T04:00:37.913Z,52.22
2022-12-31T04:03:07.859Z,52.21
2022-12-31T04:05:37.740Z,52.29
2022-12-31T04:08:06.321Z,52.13
2022-12-31T04:10:34.827Z,52.22
2022-12-31T04:13:04.576Z,52.29
2022-12-31T04:15:33.278Z,52.13
2022-12-31T04:18:01.732Z,52.34
2022-12-31T04:20:30.250Z,52.28
2022-12-31T04:23:00.145Z,52.22
2022-12-31T04:25:40.650Z,52.26
2022-12-31T04:28:09.106Z,52.33
2022-12-31T04:30:37.571Z,52.22
2022-12-31T04:33:06.054Z,52.22
2022-12-31T04:35:34.483Z,52.16
2022-12-31T04:38:04.524Z,52.22
2022-12-31T04:40:33.082Z,52.31
2022-12-31T04:43:01.614Z,52.33
2022-12-31T04:45:30.117Z,52.18
2022-12-31T04:47:58.563Z,52.40
2022-12-31T04:50:27.084Z,52.34
2022-12-31T04:52:55.559Z,52.24
2022-12-31T04:55:25.304Z,52.21
2022-12-31T04:57:53.774Z,52.21
2022-12-31T05:00:22.442Z,52.24
2022-12-31T05:02:51.208Z,52.24
2022-12-31T05:05:19.820Z,52.35
2022-12-31T05:07:48.254Z,52.40
2022-12-31T05:10:16.823Z,52.35
2022-12-31T05:12:46.693Z,52.16
2022-12-31T05:15:15.254Z,52.40
2022-12-31T05:17:43.849Z,52.38
2022-12-31T05:20:13.289Z,52.32
2022-12-31T05:22:41.762Z,52.49
2022-12-31T05:25:10.327Z,52.60
2022-12-31T05:27:39.821Z,52.40
2022-12-31T05:30:11.068Z,52.33
2022-12-31T05:32:39.572Z,52.43
2022-12-31T05:35:08.909Z,52.50
2022-12-31T05:37:37.937Z,52.32
2022-12-31T05:40:07.664Z,52.43
2022-12-31T05:42:36.325Z,52.41
2022-12-31T05:45:05.245Z,52.35
2022-12-31T05:47:35.170Z,52.36
2022-12-31T05:50:03.749Z,52.58
2022-12-31T05:52:32.235Z,52.33
2022-12-31T05:55:00.665Z,52.42
2022-12-31T05:57:29.058Z,52.41
2022-12-31T05:59:57.438Z,52.30
2022-12-31T06:02:26.132Z,52.32
2022-12-31T06:04:56.023Z,52.30
2022-12-31T06:07:24.572Z,52.50
2022-12-31T06:09:53.107Z,52.24
2022-12-31T06:12:21.676Z,52.16
2022-12-31T06:14:50.181Z,52.01
2022-12-31T06:17:19.103Z,51.85
2022-12-31T06:19:49.299Z,51.75
2022-12-31T06:22:19.295Z,51.65
2022-12-31T06:24:48.526Z,51.38
2022-12-31T06:27:17.084Z,51.46
2022-12-31T06:29:45.910Z,51.35
2022-12-31T06:32:14.498Z,51.23
2022-12-31T06:34:42.892Z,51.16
2022-12-31T06:37:11.743Z,51.23
2022-12-31T06:39:41.604Z,51.35
2022-12-31T06:42:10.004Z,51.30
2022-12-31T06:44:39.717Z,51.41
2022-12-31T06:47:08.143Z,51.21
2022-12-31T06:49:36.605Z,51.30
2022-12-31T06:52:05.358Z,51.13
2022-12-31T06:54:34.150Z,51.47
2022-12-31T06:57:05.119Z,51.31
2022-12-31T06:59:34.145Z,51.59
2022-12-31T07:02:31.983Z,51.59
2022-12-31T07:05:13.935Z,51.67
2022-12-31T07:07:53.383Z,51.59
2022-12-31T07:10:33.747Z,51.68
2022-12-31T07:13:24.583Z,51.72
2022-12-31T07:16:08.861Z,51.83
2022-12-31T07:18:44.041Z,51.86
2022-12-31T07:21:14.976Z,51.97
2022-12-31T07:23:44.343Z,51.86
2022-12-31T07:26:23.499Z,52.14
2022-12-31T07:29:02.225Z,52.05
2022-12-31T07:31:54.975Z,52.07
2022-12-31T07:34:30.483Z,52.10
2022-12-31T07:37:05.978Z,52.12
2022-12-31T07:39:43.109Z,51.99
2022-12-31T07:42:17.430Z,52.25
2022-12-31T07:45:02.339Z,52.34
2022-12-31T07:47:31.268Z,52.18
2022-12-31T07:50:00.279Z,52.14
2022-12-31T07:52:29.262Z,52.10
2022-12-31T07:54:57.737Z,52.07
2022-12-31T07:57:32.805Z,52.31
2022-12-31T08:00:09.795Z,52.07
2022-12-31T08:03:03.011Z,52.22
2022-12-31T08:05:36.465Z,52.28
2022-12-31T08:08:18.644Z,52.42
2022-12-31T08:11:00.741Z,52.08
2022-12-31T08:13:29.386Z,52.02
2022-12-31T08:16:00.235Z,52.01
2022-12-31T08:18:29.112Z,52.01
2022-12-31T08:21:07.379Z,52.00
2022-12-31T08:23:40.829Z,52.08
2022-12-31T08:26:22.106Z,52.18
2022-12-31T08:29:17.667Z,52.39
2022-12-31T08:31:55.590Z,52.16
2022-12-31T08:34:32.828Z,52.08
2022-12-31T08:37:06.393Z,52.21
2022-12-31T08:39:49.631Z,52.15
2022-12-31T08:42:26.850Z,52.41
2022-12-31T08:45:04.121Z,52.46
2022-12-31T08:47:43.049Z,52.44
2022-12-31T08:50:15.712Z,52.38
2022-12-31T08:52:44.976Z,52.29
2022-12-31T08:55:16.326Z,52.47
2022-12-31T08:57:53.790Z,52.30
2022-12-31T09:00:23.180Z,52.47
2022-12-31T09:03:31.596Z,52.41
2022-12-31T09:06:07.605Z,52.36
2022-12-31T09:08:44.931Z,52.42
2022-12-31T09:11:22.801Z,52.60
2022-12-31T09:14:08.807Z,52.49
2022-12-31T09:16:47.490Z,52.51
2022-12-31T09:19:17.402Z,52.43
2022-12-31T09:21:46.510Z,52.63
2022-12-31T09:24:16.572Z,52.47
2022-12-31T09:26:52.992Z,52.52
2022-12-31T09:29:35.981Z,52.64
2022-12-31T09:32:13.945Z,52.49
2022-12-31T09:34:50.797Z,52.63
2022-12-31T09:37:26.787Z,52.62
2022-12-31T09:40:00.546Z,52.61
2022-12-31T09:43:02.065Z,52.73
2022-12-31T09:46:05.078Z,52.61
2022-12-31T09:49:05.810Z,52.66
2022-12-31T09:51:46.302Z,52.63
2022-12-31T09:54:41.121Z,52.65
2022-12-31T09:57:28.574Z,52.70
2022-12-31T10:00:02.526Z,52.70
2022-12-31T10:02:55.042Z,52.62
2022-12-31T10:05:43.522Z,52.73
2022-12-31T10:08:29.681Z,52.64
2022-12-31T10:11:04.048Z,52.71
2022-12-31T10:13:49.931Z,52.73
2022-12-31T10:16:33.503Z,52.41
2022-12-31T10:19:30.316Z,52.74
2022-12-31T10:22:11.971Z,52.75
2022-12-31T10:25:08.848Z,52.72
2022-12-31T10:27:49.810Z,52.67
2022-12-31T10:30:20.963Z,52.59
2022-12-31T10:33:04.418Z,52.68
2022-12-31T10:35:41.518Z,52.65
2022-12-31T10:38:25.696Z,52.73
2022-12-31T10:41:38.952Z,52.87
2022-12-31T10:44:46.506Z,53.00
2022-12-31T10:47:48.976Z,52.75
2022-12-31T10:50:44.878Z,52.93
2022-12-31T10:53:42.884Z,53.00
2022-12-31T10:56:46.956Z,52.79
2022-12-31T10:59:55.125Z,52.92
2022-12-31T11:02:56.957Z,52.83
2022-12-31T11:06:10.204Z,52.95
2022-12-31T11:08:55.141Z,53.15
2022-12-31T11:11:32.596Z,53.04
2022-12-31T11:14:33.144Z,53.21
2022-12-31T11:17:14.053Z,53.25
2022-12-31T11:19:55.972Z,53.09
2022-12-31T11:22:38.967Z,52.92
2022-12-31T11:25:21.653Z,53.05
2022-12-31T11:28:03.546Z,53.09
2022-12-31T11:30:45.704Z,52.95
2022-12-31T11:33:32.418Z,53.19
2022-12-31T11:36:15.006Z,52.93
2022-12-31T11:38:48.531Z,52.88
2022-12-31T11:41:24.281Z,52.73
2022-12-31T11:44:02.034Z,52.98
2022-12-31T11:47:00.840Z,52.91
2022-12-31T11:49:42.145Z,52.86
2022-12-31T11:52:34.334Z,52.80
2022-12-31T11:55:25.541Z,52.96
2022-12-31T11:57:56.138Z,52.78
2022-12-31T12:00:26.905Z,53.06
2022-12-31T12:03:00.641Z,53.01
2022-12-31T12:05:29.403Z,53.03
2022-12-31T12:07:58.534Z,53.00
2022-12-31T12:10:36.142Z,52.88
2022-12-31T12:13:14.366Z,53.04
2022-12-31T12:15:46.653Z,53.21
2022-12-31T12:18:27.266Z,52.92
2022-12-31T12:21:06.457Z,52.95
2022-12-31T12:23:34.917Z,52.98
2022-12-31T12:26:03.497Z,52.97
2022-12-31T12:28:44.503Z,53.08
2022-12-31T12:31:21.160Z,52.97
2022-12-31T12:33:52.876Z,53.15
2022-12-31T12:36:22.943Z,52.98
2022-12-31T12:39:02.423Z,53.03
2022-12-31T12:41:30.984Z,53.05
2022-12-31T12:44:07.920Z,52.95
2022-12-31T12:46:47.980Z,53.11
2022-12-31T12:49:24.662Z,53.02
2022-12-31T12:52:24.703Z,53.03
2022-12-31T12:55:07.406Z,53.71
2022-12-31T12:57:45.260Z,53.82
2022-12-31T13:00:20.067Z,53.92
2022-12-31T13:03:08.668Z,53.44
2022-12-31T13:05:52.954Z,53.20
2022-12-31T13:08:34.537Z,53.27
2022-12-31T13:11:15.816Z,53.18
2022-12-31T13:13:53.337Z,53.19
2022-12-31T13:16:29.076Z,52.99
2022-12-31T13:19:05.616Z,53.11
2022-12-31T13:21:46.577Z,53.22
2022-12-31T13:24:26.452Z,53.03
2022-12-31T13:27:01.818Z,53.15
2022-12-31T13:29:33.666Z,53.05
2022-12-31T13:32:05.041Z,53.03
2022-12-31T13:34:37.531Z,53.04
2022-12-31T13:37:19.418Z,52.91
2022-12-31T13:39:50.971Z,53.01
2022-12-31T13:42:24.772Z,53.04
2022-12-31T13:44:59.330Z,53.01
2022-12-31T13:47:33.654Z,53.07
2022-12-31T13:50:09.571Z,53.01
2022-12-31T13:52:49.821Z,52.96
2022-12-31T13:55:22.491Z,52.95
2022-12-31T13:57:54.502Z,52.90
2022-12-31T14:00:25.317Z,53.07
2022-12-31T14:03:03.245Z,52.89
2022-12-31T14:05:36.229Z,52.96
2022-12-31T14:08:07.311Z,53.01
2022-12-31T14:10:47.118Z,53.07
2022-12-31T14:13:35.166Z,52.91
2022-12-31T14:16:12.746Z,53.00
2022-12-31T14:18:46.881Z,52.99
2022-12-31T14:21:22.797Z,52.91
2022-12-31T14:24:00.308Z,53.04
2022-12-31T14:26:32.196Z,53.01
2022-12-31T14:29:15.443Z,53.07
2022-12-31T14:32:13.636Z,53.06
2022-12-31T14:34:51.774Z,53.18
2022-12-31T14:37:33.914Z,53.31
2022-12-31T14:40:17.709Z,53.12
2022-12-31T14:42:57.694Z,53.08
2022-12-31T14:45:36.431Z,53.19
2022-12-31T14:48:21.885Z,53.47
2022-12-31T14:50:51.257Z,53.20
2022-12-31T14:53:24.049Z,53.37
2022-12-31T14:56:01.818Z,53.41
2022-12-31T14:58:36.486Z,53.52
2022-12-31T15:01:09.000Z,53.56
2022-12-31T15:03:45.430Z,53.37
2022-12-31T15:06:36.762Z,53.66
2022-12-31T15:09:15.357Z,53.44
2022-12-31T15:12:05.085Z,53.58
2022-12-31T15:14:51.851Z,53.54
2022-12-31T15:17:33.197Z,53.57
2022-12-31T15:20:42.378Z,53.50
2022-12-31T15:23:20.880Z,53.61
2022-12-31T15:25:52.448Z,53.44
2022-12-31T15:28:37.426Z,53.55
2022-12-31T15:31:19.114Z,53.52
2022-12-31T15:33:58.262Z,53.67
2022-12-31T15:36:28.916Z,53.63
2022-12-31T15:39:26.650Z,53.58
2022-12-31T15:42:36.105Z,53.80
2022-12-31T15:44:50.711Z,53.67
2022-12-31T15:47:32.437Z,53.74
2022-12-31T15:50:04.523Z,53.61
2022-12-31T15:52:40.234Z,53.61
2022-12-31T15:55:16.629Z,53.45
2022-12-31T15:57:45.270Z,53.84
2022-12-31T16:00:20.054Z,54.20
2022-12-31T16:02:49.353Z,53.83
2022-12-31T16:05:20.774Z,53.86
2022-12-31T16:07:49.600Z,53.67
2022-12-31T16:10:24.726Z,54.04
2022-12-31T16:12:54.662Z,53.55
2022-12-31T16:15:28.110Z,53.27
2022-12-31T16:18:02.808Z,54.10
2022-12-31T16:20:33.787Z,55.35
2022-12-31T16:23:04.379Z,55.40
2022-12-31T16:25:34.135Z,55.75
2022-12-31T16:28:04.682Z,55.76
2022-12-31T16:30:36.841Z,55.37
2022-12-31T16:33:07.948Z,55.32
2022-12-31T16:35:38.018Z,55.61
2022-12-31T16:38:15.789Z,55.54
2022-12-31T16:41:04.544Z,55.73
2022-12-31T16:43:39.418Z,55.93
2022-12-31T16:46:13.561Z,56.13
2022-12-31T16:48:47.432Z,55.77
2022-12-31T16:51:20.779Z,55.26
2022-12-31T16:53:50.427Z,55.10
2022-12-31T16:56:26.007Z,54.58
2022-12-31T16:59:00.767Z,54.79
2022-12-31T17:01:33.999Z,55.06
2022-12-31T17:04:07.295Z,55.00
2022-12-31T17:06:35.762Z,54.81
2022-12-31T17:09:15.320Z,54.90
2022-12-31T17:11:45.444Z,55.18
2022-12-31T17:14:16.366Z,55.69
2022-12-31T17:17:03.678Z,55.38
2022-12-31T17:19:41.315Z,55.22
2022-12-31T17:22:14.319Z,55.32
2022-12-31T17:24:43.236Z,55.24
2022-12-31T17:27:11.827Z,55.18
2022-12-31T17:29:40.299Z,55.15
2022-12-31T17:32:29.472Z,55.09
2022-12-31T17:34:57.995Z,55.18
2022-12-31T17:37:28.256Z,54.80
2022-12-31T17:40:24.665Z,54.37
2022-12-31T17:42:49.885Z,54.43
2022-12-31T17:45:22.485Z,54.45
2022-12-31T17:47:55.540Z,54.13
2022-12-31T17:50:26.453Z,54.36
2022-12-31T17:52:57.290Z,54.46
2022-12-31T17:55:25.948Z,54.48
2022-12-31T17:57:57.280Z,54.24
2022-12-31T18:00:27.391Z,54.43
2022-12-31T18:02:57.239Z,54.27
2022-12-31T18:05:26.105Z,54.36
2022-12-31T18:07:54.936Z,53.77
2022-12-31T18:10:25.239Z,53.91
2022-12-31T18:12:54.204Z,53.94
2022-12-31T18:15:24.529Z,53.87
2022-12-31T18:17:52.965Z,53.81
2022-12-31T18:20:22.910Z,53.81
2022-12-31T18:22:51.871Z,54.00
2022-12-31T18:25:22.310Z,53.66
2022-12-31T18:27:52.069Z,53.97
2022-12-31T18:30:20.610Z,53.94
2022-12-31T18:32:49.541Z,53.83
2022-12-31T18:35:57.768Z,54.04
2022-12-31T18:38:13.966Z,53.71
2022-12-31T18:40:46.590Z,54.00
2022-12-31T18:43:19.527Z,53.94
2022-12-31T18:45:49.046Z,54.05
2022-12-31T18:48:18.106Z,53.78
2022-12-31T18:50:47.800Z,54.01
2022-12-31T18:53:20.468Z,54.12
2022-12-31T18:55:52.527Z,53.95
2022-12-31T18:58:21.116Z,54.17
2022-12-31T19:00:51.113Z,54.21
2022-12-31T19:03:22.708Z,54.34
2022-12-31T19:05:52.538Z,54.27
2022-12-31T19:08:24.175Z,54.55
2022-12-31T19:10:53.702Z,54.66
2022-12-31T19:13:23.198Z,54.61
2022-12-31T19:15:53.800Z,54.65
2022-12-31T19:18:22.587Z,54.61
2022-12-31T19:20:52.489Z,54.63
2022-12-31T19:23:22.666Z,54.52
2022-12-31T19:25:51.503Z,54.54
2022-12-31T19:28:22.404Z,54.50
2022-12-31T19:30:50.864Z,54.48
2022-12-31T19:33:20.177Z,54.61
2022-12-31T19:35:48.709Z,54.50
2022-12-31T19:38:19.684Z,54.59
2022-12-31T19:40:50.546Z,54.59
2022-12-31T19:43:21.593Z,54.70
2022-12-31T19:45:51.231Z,54.70
2022-12-31T19:48:22.877Z,54.63
2022-12-31T19:50:55.081Z,54.58
2022-12-31T19:53:26.644Z,54.63
2022-12-31T19:55:56.631Z,54.73
2022-12-31T19:58:26.604Z,54.71
2022-12-31T20:01:01.918Z,54.70
2022-12-31T20:03:32.459Z,54.64
2022-12-31T20:06:07.452Z,54.61
2022-12-31T20:08:36.383Z,54.61
2022-12-31T20:11:14.087Z,54.73
2022-12-31T20:13:43.421Z,54.75
2022-12-31T20:16:15.539Z,54.90
2022-12-31T20:18:45.525Z,54.61
2022-12-31T20:21:17.607Z,54.72
2022-12-31T20:23:46.757Z,54.94
2022-12-31T20:26:16.706Z,54.78
2022-12-31T20:28:45.357Z,54.64
2022-12-31T20:31:15.655Z,54.71
2022-12-31T20:33:44.727Z,54.79
2022-12-31T20:36:15.800Z,54.74
2022-12-31T20:38:44.744Z,54.70
2022-12-31T20:41:14.714Z,54.59
2022-12-31T20:43:45.448Z,54.79
2022-12-31T20:46:17.972Z,54.68
2022-12-31T20:48:47.803Z,54.65
2022-12-31T20:51:17.815Z,54.69
2022-12-31T20:53:48.312Z,54.75
2022-12-31T20:56:17.786Z,54.66
2022-12-31T20:58:47.621Z,54.58
2022-12-31T21:01:17.608Z,54.78
2022-12-31T21:04:05.351Z,54.70
2022-12-31T21:06:35.787Z,54.57
2022-12-31T21:09:06.528Z,54.58
2022-12-31T21:11:52.871Z,54.79
2022-12-31T21:14:22.714Z,54.68
2022-12-31T21:16:51.508Z,54.76
2022-12-31T21:19:20.034Z,54.68
2022-12-31T21:21:49.757Z,54.87
2022-12-31T21:24:23.613Z,54.80
2022-12-31T21:26:55.404Z,54.79
2022-12-31T21:29:26.905Z,54.85
2022-12-31T21:31:57.361Z,54.92
2022-12-31T21:34:25.838Z,54.84
2022-12-31T21:36:54.347Z,54.82
2022-12-31T21:39:22.856Z,54.79
2022-12-31T21:41:53.969Z,54.76
2022-12-31T21:44:25.418Z,54.85
2022-12-31T21:47:39.738Z,54.77
2022-12-31T21:50:09.760Z,54.69
2022-12-31T21:52:38.243Z,54.77
2022-12-31T21:55:25.190Z,54.81
2022-12-31T22:01:01.592Z,54.79
2022-12-31T22:03:31.691Z,54.97
2022-12-31T22:06:02.824Z,54.74
2022-12-31T22:08:32.886Z,54.82
2022-12-31T22:11:01.313Z,54.93
2022-12-31T22:13:29.797Z,54.89
2022-12-31T22:16:05.161Z,54.80
2022-12-31T22:18:38.508Z,54.73
2022-12-31T22:21:15.563Z,54.87
2022-12-31T22:23:47.347Z,54.85
2022-12-31T22:26:17.928Z,54.78
2022-12-31T22:28:47.147Z,54.72
2022-12-31T22:31:18.932Z,54.75
2022-12-31T22:33:48.165Z,54.65
2022-12-31T22:36:18.875Z,54.74
2022-12-31T22:38:48.245Z,54.81
2022-12-31T22:41:18.733Z,54.72
2022-12-31T22:43:48.674Z,54.80
2022-12-31T22:46:20.166Z,54.73
2022-12-31T22:48:48.803Z,54.77
2022-12-31T22:51:17.701Z,54.68
2022-12-31T22:53:46.862Z,54.69
2022-12-31T22:56:17.811Z,54.86
2022-12-31T22:58:47.216Z,54.73
2022-12-31T23:01:20.316Z,54.87
2022-12-31T23:03:50.286Z,54.59
2022-12-31T23:06:19.477Z,54.70
2022-12-31T23:09:12.516Z,54.80
2022-12-31T23:11:40.682Z,54.79
2022-12-31T23:14:26.683Z,54.59
2022-12-31T23:17:31.390Z,54.62
2022-12-31T23:20:18.225Z,54.72
2022-12-31T23:23:04.267Z,54.98
2022-12-31T23:25:33.936Z,54.99
2022-12-31T23:28:02.808Z,54.71
2022-12-31T23:30:31.334Z,54.69
2022-12-31T23:33:01.163Z,54.86
2022-12-31T23:35:29.632Z,54.72
2022-12-31T23:37:58.093Z,54.79
2022-12-31T23:40:34.200Z,54.83
2022-12-31T23:43:04.046Z,54.83
2022-12-31T23:45:34.006Z,54.69
2022-12-31T23:48:04.520Z,54.76
2022-12-31T23:50:32.952Z,54.67
2022-12-31T23:53:01.453Z,54.78
2022-12-31T23:55:29.962Z,54.59
2022-12-31T23:57:58.393Z,54.66
